Oelandsbron, Sweden

9:11 AM CEST on October 01, 2016 (GMT +0200)
Sävgatan | | Change Station

Elev 26 ft 56.66 °N, 16.48 °E | Updated 14 minutes ago

Clear
Clear
53.1 °F
Feels Like 53.1 °F
N
7.5
Wind Variable Wind from WSW
Gusts 16.2 mph

Today
High -- | Low -- °F
--% Chance of Precip.
Yesterday
High -- | Low -- °F
Precip. -- in
Pressure 29.83 in
Visibility 6.2 miles
Clouds
Dew Point 49 °F
Humidity 85%
Rainfall 0.00 in
Snow Depth Not available.
6:58 AM 6:28 PM
New Moon, 0% visible
METAR ESMQ 010650Z AUTO 24008KT 9999 NCD 11/10 Q1010
Pressure 29.83 in
Visibility 6.2 miles
Clouds
Dew Point 49 °F
Humidity 85%
Rainfall 0.00 in
Snow Depth Not available.
6:58 AM 6:28 PM
New Moon, 0% visible
METAR ESMQ 010650Z AUTO 24008KT 9999 NCD 11/10 Q1010

10-Day Weather Forecast

×

Almanac

Astronomy

Oct. 01, 2016 Rise Set
Actual Time
Civil Twilight
Nautical Twilight
Astronomical Twilight
Moon
Length of Visible Light
Length of Day
Tomorrow will be .
, % of the Moon is Illuminated

Today's Extremes

Country Highs Country Lows

Community

WunderPhotos

Upload Photos

1,942,898 photos uploaded!

WunderBlog® & News

Nearby

Air Quality

  Air Quality AQ Index Pollutant
Not available.

Snow Depth

Station Depth Elevation

Earthquake Activity

City Distance Mag. Time & Date
Minimum magnitude displayed is 2.5.

Coastal Water Temperatures

Place Temperature

Stations

Nearby Weather Stations

Station Location Temp. Windchill Dew Point Humidity Wind Precip. Elev Updated Type